createdAt,value
2023-04-25T00:01:25.192Z,13.82
2023-04-25T00:03:52.961Z,13.83
2023-04-25T00:06:21.042Z,13.84
2023-04-25T00:08:49.045Z,13.88
2023-04-25T00:11:16.493Z,13.85
2023-04-25T00:13:43.903Z,13.72
2023-04-25T00:16:11.876Z,13.54
2023-04-25T00:18:39.414Z,13.44
2023-04-25T00:21:07.392Z,13.24
2023-04-25T00:23:36.673Z,13.24
2023-04-25T00:26:04.278Z,13.08
2023-04-25T00:28:31.821Z,13.04
2023-04-25T00:30:59.211Z,13.17
2023-04-25T00:33:26.722Z,13.03
2023-04-25T00:35:54.342Z,13.06
2023-04-25T00:38:21.752Z,13.04
2023-04-25T00:40:49.252Z,12.95
2023-04-25T00:43:16.760Z,12.99
2023-04-25T00:45:44.338Z,13.04
2023-04-25T00:48:12.498Z,13.05
2023-04-25T00:50:39.817Z,13.05
2023-04-25T00:53:07.850Z,12.98
2023-04-25T00:55:37.191Z,12.97
2023-04-25T00:58:04.602Z,13.03
2023-04-25T01:00:32.358Z,13.02
2023-04-25T01:03:01.333Z,13.03
2023-04-25T01:05:29.048Z,13.05
2023-04-25T01:08:00.744Z,13.12
2023-04-25T01:10:28.653Z,13.02
2023-04-25T01:12:56.127Z,13.10
2023-04-25T01:15:23.511Z,13.25
2023-04-25T01:17:51.028Z,13.20
2023-04-25T01:20:19.360Z,13.18
2023-04-25T01:22:47.001Z,13.14
2023-04-25T01:25:15.460Z,13.22
2023-04-25T01:27:43.348Z,13.21
2023-04-25T01:30:11.335Z,13.23
2023-04-25T01:32:43.952Z,13.29
2023-04-25T01:35:13.060Z,13.20
2023-04-25T01:37:41.739Z,13.27
2023-04-25T01:40:11.633Z,13.30
2023-04-25T01:42:42.350Z,13.24
2023-04-25T01:45:11.768Z,13.29
2023-04-25T01:47:44.824Z,13.35
2023-04-25T01:50:12.515Z,13.38
2023-04-25T01:52:40.520Z,13.34
2023-04-25T01:55:09.063Z,13.37
2023-04-25T01:57:38.890Z,13.33
2023-04-25T02:00:08.064Z,13.41
2023-04-25T02:02:41.278Z,13.32
2023-04-25T02:05:24.187Z,13.32
2023-04-25T02:07:52.619Z,13.39
2023-04-25T02:10:20.170Z,13.38
2023-04-25T02:12:58.163Z,13.39
2023-04-25T02:15:42.459Z,13.39
2023-04-25T02:18:20.273Z,13.38
2023-04-25T02:20:48.016Z,13.35
2023-04-25T02:23:16.479Z,13.36
2023-04-25T02:25:44.063Z,13.37
2023-04-25T02:28:11.931Z,13.39
2023-04-25T02:30:39.433Z,13.42
2023-04-25T02:33:06.973Z,13.49
2023-04-25T02:35:34.514Z,13.56
2023-04-25T02:38:01.862Z,13.47
2023-04-25T02:40:29.473Z,13.54
2023-04-25T02:42:56.902Z,13.55
2023-04-25T02:45:24.355Z,13.51
2023-04-25T02:47:51.818Z,13.70
2023-04-25T02:50:20.307Z,13.70
2023-04-25T02:52:47.885Z,13.66
2023-04-25T02:55:19.704Z,13.66
2023-04-25T02:57:47.817Z,13.58
2023-04-25T03:00:23.469Z,13.64
2023-04-25T03:03:09.950Z,13.62
2023-04-25T03:05:37.449Z,13.58
2023-04-25T03:08:05.129Z,13.52
2023-04-25T03:10:34.095Z,13.53
2023-04-25T03:13:05.477Z,13.56
2023-04-25T03:15:32.930Z,13.57
2023-04-25T03:18:00.405Z,13.52
2023-04-25T03:20:28.149Z,13.49
2023-04-25T03:22:55.585Z,13.52
2023-04-25T03:25:23.624Z,13.53
2023-04-25T03:27:51.058Z,13.54
2023-04-25T03:30:18.928Z,13.49
2023-04-25T03:32:46.820Z,13.54
2023-04-25T03:35:17.457Z,13.56
2023-04-25T03:37:46.642Z,13.49
2023-04-25T03:40:19.052Z,13.40
2023-04-25T03:43:06.761Z,13.43
2023-04-25T03:45:35.130Z,13.38
2023-04-25T03:48:02.687Z,13.41
2023-04-25T03:50:31.383Z,13.35
2023-04-25T03:52:58.810Z,13.33
2023-04-25T03:55:28.923Z,13.36
2023-04-25T03:57:56.820Z,13.37
2023-04-25T04:00:24.466Z,13.37
2023-04-25T04:02:53.503Z,13.36
2023-04-25T04:05:21.106Z,13.31
2023-04-25T04:07:54.708Z,13.31
2023-04-25T04:10:24.237Z,13.46
2023-04-25T04:12:51.648Z,13.35
2023-04-25T04:15:19.318Z,13.27
2023-04-25T04:17:48.952Z,13.28
2023-04-25T04:20:16.608Z,13.35
2023-04-25T04:22:44.227Z,13.38
2023-04-25T04:25:14.269Z,13.39
2023-04-25T04:28:12.227Z,13.38
2023-04-25T04:30:52.368Z,13.39
2023-04-25T04:33:20.674Z,13.47
2023-04-25T04:35:53.438Z,13.47
2023-04-25T04:38:22.753Z,13.50
2023-04-25T04:40:51.433Z,13.57
2023-04-25T04:43:27.032Z,13.35
2023-04-25T04:46:08.659Z,13.32
2023-04-25T04:48:54.905Z,13.23
2023-04-25T04:51:50.686Z,13.13
2023-04-25T04:54:39.352Z,13.19
2023-04-25T04:57:15.680Z,13.24
2023-04-25T04:59:57.988Z,13.27
2023-04-25T05:02:43.800Z,13.27
2023-04-25T05:05:49.618Z,13.30
2023-04-25T05:08:35.480Z,13.23
2023-04-25T05:11:21.962Z,13.03
2023-04-25T05:13:55.492Z,12.22
2023-04-25T05:16:42.230Z,10.93
2023-04-25T05:19:40.374Z,10.12
2023-04-25T05:22:19.134Z,9.77
2023-04-25T05:25:12.958Z,9.62
2023-04-25T05:28:09.902Z,9.20
2023-04-25T05:30:45.770Z,9.28
2023-04-25T05:33:28.933Z,9.44
2023-04-25T05:35:56.319Z,9.43
2023-04-25T05:38:26.298Z,9.57
2023-04-25T05:41:12.243Z,9.51
2023-04-25T05:43:46.311Z,9.49
2023-04-25T05:46:32.485Z,9.51
2023-04-25T05:49:22.029Z,9.53
2023-04-25T05:52:24.649Z,9.68
2023-04-25T05:55:02.960Z,9.69
2023-04-25T05:57:32.241Z,9.98
2023-04-25T06:00:00.587Z,10.17
2023-04-25T06:02:41.045Z,10.29
2023-04-25T06:05:10.047Z,10.12
2023-04-25T06:07:37.799Z,10.30
2023-04-25T06:10:07.395Z,10.35
2023-04-25T06:12:34.748Z,10.27
2023-04-25T06:15:03.505Z,10.29
2023-04-25T06:17:32.461Z,10.41
2023-04-25T06:20:00.346Z,10.38
2023-04-25T06:22:27.738Z,10.37
2023-04-25T06:24:58.153Z,10.47
2023-04-25T06:27:25.994Z,10.47
2023-04-25T06:29:53.709Z,10.40
2023-04-25T06:32:21.177Z,10.35
2023-04-25T06:34:48.560Z,10.29
2023-04-25T06:37:15.985Z,10.36
2023-04-25T06:39:43.445Z,10.53
2023-04-25T06:42:11.892Z,10.55
2023-04-25T06:44:57.296Z,10.55
2023-04-25T06:47:25.446Z,10.65
2023-04-25T06:49:52.900Z,10.62
2023-04-25T06:52:21.378Z,10.71
2023-04-25T06:54:49.200Z,10.73
2023-04-25T06:57:24.809Z,10.76
2023-04-25T06:59:53.319Z,10.77
2023-04-25T07:02:22.252Z,11.00
2023-04-25T07:04:52.678Z,11.10
2023-04-25T07:07:20.444Z,11.24
2023-04-25T07:09:54.686Z,11.45
2023-04-25T07:12:22.656Z,11.30
2023-04-25T07:14:50.190Z,11.38
2023-04-25T07:17:17.543Z,11.28
2023-04-25T07:19:45.499Z,11.35
2023-04-25T07:22:13.026Z,11.31
2023-04-25T07:24:42.711Z,11.34
2023-04-25T07:27:13.891Z,11.19
2023-04-25T07:30:08.200Z,11.00
2023-04-25T07:32:36.085Z,10.81
2023-04-25T07:35:04.475Z,10.80
2023-04-25T07:37:31.924Z,10.70
2023-04-25T07:40:10.579Z,10.58
2023-04-25T07:42:42.553Z,10.63
2023-04-25T07:45:11.242Z,10.70
2023-04-25T07:47:40.476Z,10.60
2023-04-25T07:50:08.747Z,10.68
2023-04-25T07:52:36.291Z,10.69
2023-04-25T07:55:29.871Z,10.74
2023-04-25T07:58:09.971Z,10.72
2023-04-25T08:00:40.368Z,10.70
2023-04-25T08:03:24.949Z,10.73
2023-04-25T08:05:53.458Z,10.66
2023-04-25T08:08:21.334Z,10.75
2023-04-25T08:10:51.837Z,11.00
2023-04-25T08:13:19.279Z,11.25
2023-04-25T08:15:46.886Z,11.36
2023-04-25T08:18:16.922Z,11.57
2023-04-25T08:20:46.137Z,11.75
2023-04-25T08:23:15.328Z,11.70
2023-04-25T08:25:54.033Z,11.90
2023-04-25T08:28:25.783Z,12.26
2023-04-25T08:30:53.398Z,12.46
2023-04-25T08:33:21.721Z,12.70
2023-04-25T08:36:02.897Z,12.96
2023-04-25T08:38:32.512Z,13.44
2023-04-25T08:41:02.291Z,13.85
2023-04-25T08:43:31.667Z,13.96
2023-04-25T08:46:09.642Z,14.14
2023-04-25T08:48:46.737Z,14.54
2023-04-25T08:51:23.157Z,14.54
2023-04-25T08:53:57.854Z,14.56
2023-04-25T08:56:29.148Z,14.69
2023-04-25T08:58:57.161Z,14.79
2023-04-25T09:01:24.990Z,14.78
2023-04-25T09:03:55.136Z,15.23
2023-04-25T09:06:24.456Z,15.57
2023-04-25T09:08:52.126Z,15.70
2023-04-25T09:11:21.540Z,16.30
2023-04-25T09:14:11.857Z,16.44
2023-04-25T09:16:57.830Z,16.15
2023-04-25T09:19:42.258Z,16.18
2023-04-25T09:22:24.295Z,16.20
2023-04-25T09:24:52.344Z,17.00
2023-04-25T09:27:27.956Z,17.77
2023-04-25T09:30:17.682Z,17.54
2023-04-25T09:33:11.682Z,16.24
2023-04-25T09:35:44.378Z,15.46
2023-04-25T09:38:19.654Z,15.11
2023-04-25T09:40:56.646Z,15.05
2023-04-25T09:43:33.613Z,14.99
2023-04-25T09:46:01.987Z,15.13
2023-04-25T09:48:31.264Z,15.36
2023-04-25T09:51:11.723Z,15.37
2023-04-25T09:53:41.850Z,15.27
2023-04-25T09:56:23.263Z,15.02
2023-04-25T09:58:54.076Z,15.06
2023-04-25T10:01:22.780Z,15.10
2023-04-25T10:04:06.138Z,15.34
2023-04-25T10:06:57.429Z,15.31
2023-04-25T10:09:27.264Z,15.34
2023-04-25T10:11:57.541Z,15.45
2023-04-25T10:14:26.502Z,15.53
2023-04-25T10:16:56.581Z,15.64
2023-04-25T10:19:25.476Z,15.67
2023-04-25T10:22:19.626Z,15.66
2023-04-25T10:24:48.092Z,15.60
2023-04-25T10:27:15.690Z,15.50
2023-04-25T10:29:44.659Z,15.43
2023-04-25T10:32:12.114Z,15.50
2023-04-25T10:34:47.898Z,15.52
2023-04-25T10:37:16.489Z,15.71
2023-04-25T10:39:44.797Z,15.76
2023-04-25T10:42:12.673Z,15.94
2023-04-25T10:44:41.583Z,15.82
2023-04-25T10:47:10.809Z,15.75
2023-04-25T10:49:39.389Z,15.65
2023-04-25T10:52:24.764Z,15.94
2023-04-25T10:54:57.275Z,15.65
2023-04-25T10:57:36.790Z,15.70
2023-04-25T11:00:11.942Z,15.76
2023-04-25T11:03:03.150Z,15.66
2023-04-25T11:05:51.090Z,15.38
2023-04-25T11:08:49.226Z,15.31
2023-04-25T11:11:20.616Z,15.51
2023-04-25T11:13:51.404Z,15.48
2023-04-25T11:16:27.611Z,15.60
2023-04-25T11:18:58.299Z,15.64
2023-04-25T11:21:29.096Z,15.77
2023-04-25T11:24:01.231Z,15.75
2023-04-25T11:26:29.029Z,15.75
2023-04-25T11:29:02.838Z,15.71
2023-04-25T11:31:30.853Z,15.79
2023-04-25T11:33:58.401Z,15.67
2023-04-25T11:36:28.516Z,15.89
2023-04-25T11:39:03.775Z,15.88
2023-04-25T11:41:32.407Z,15.87
2023-04-25T11:43:59.944Z,15.63
2023-04-25T11:46:30.099Z,15.43
2023-04-25T11:49:02.534Z,15.53
2023-04-25T11:51:50.888Z,15.65
2023-04-25T11:54:18.579Z,15.49
2023-04-25T11:56:50.354Z,15.61
2023-04-25T11:59:18.004Z,15.87
2023-04-25T12:01:50.526Z,15.91
2023-04-25T12:04:26.888Z,15.96
2023-04-25T12:06:56.439Z,15.62
2023-04-25T12:09:32.817Z,15.57
2023-04-25T12:12:05.017Z,15.49
2023-04-25T12:14:36.196Z,15.58
2023-04-25T12:17:05.323Z,15.40
2023-04-25T12:19:35.187Z,15.52
2023-04-25T12:22:06.435Z,15.25
2023-04-25T12:24:37.799Z,15.31
2023-04-25T12:27:09.346Z,15.32
2023-04-25T12:32:07.506Z,14.94
2023-04-25T12:34:36.936Z,14.80
2023-04-25T12:37:04.552Z,14.93
2023-04-25T12:39:31.963Z,14.86
2023-04-25T12:42:00.725Z,14.86
2023-04-25T12:44:28.222Z,14.50
2023-04-25T12:46:56.036Z,14.34
2023-04-25T12:49:23.529Z,14.30
2023-04-25T12:51:52.504Z,14.00
2023-04-25T12:54:19.899Z,13.93
2023-04-25T12:56:47.368Z,13.79
2023-04-25T12:59:15.092Z,13.17
2023-04-25T13:01:42.451Z,12.83
2023-04-25T13:04:09.906Z,12.50
2023-04-25T13:06:37.342Z,12.14
2023-04-25T13:09:04.693Z,11.94
2023-04-25T13:11:32.430Z,11.85
2023-04-25T13:13:59.925Z,11.85
2023-04-25T13:16:27.875Z,11.73
2023-04-25T13:18:57.168Z,11.71
2023-04-25T13:21:24.669Z,11.78
2023-04-25T13:23:52.326Z,11.72
2023-04-25T13:26:19.935Z,11.67
2023-04-25T13:28:47.244Z,11.66
2023-04-25T13:31:14.560Z,11.66
2023-04-25T13:33:41.930Z,11.65
2023-04-25T13:36:09.268Z,11.72
2023-04-25T13:38:36.538Z,11.72
2023-04-25T13:41:04.222Z,11.80
2023-04-25T13:43:33.134Z,11.86
2023-04-25T13:46:00.524Z,12.00
2023-04-25T13:48:27.999Z,11.86
2023-04-25T13:50:55.449Z,11.87
2023-04-25T13:53:22.776Z,11.90
2023-04-25T13:55:50.135Z,11.99
2023-04-25T13:58:17.425Z,12.11
2023-04-25T14:00:47.008Z,12.00
2023-04-25T14:03:14.396Z,11.93
2023-04-25T14:05:42.062Z,11.96
2023-04-25T14:08:10.998Z,11.86
2023-04-25T14:10:38.811Z,11.78
2023-04-25T14:13:07.345Z,11.66
2023-04-25T14:15:36.014Z,11.60
2023-04-25T14:18:03.684Z,11.65
2023-04-25T14:20:31.282Z,11.54
2023-04-25T14:22:59.406Z,11.50
2023-04-25T14:25:27.017Z,11.52
2023-04-25T14:27:54.458Z,11.73
2023-04-25T14:30:22.570Z,11.76
2023-04-25T14:32:50.931Z,11.74
2023-04-25T14:35:22.950Z,11.73
2023-04-25T14:37:51.982Z,11.65
2023-04-25T14:40:19.462Z,11.69
2023-04-25T14:42:47.347Z,11.74
2023-04-25T14:45:18.995Z,11.66
2023-04-25T14:47:46.949Z,11.72
2023-04-25T14:50:14.483Z,11.87
2023-04-25T14:52:41.897Z,11.90
2023-04-25T14:55:10.110Z,12.07
2023-04-25T14:57:37.661Z,12.08
2023-04-25T15:00:07.976Z,12.01
2023-04-25T15:02:36.326Z,11.99
2023-04-25T15:05:04.436Z,12.10
2023-04-25T15:07:32.239Z,12.18
2023-04-25T15:09:59.719Z,12.28
2023-04-25T15:12:29.199Z,12.44
2023-04-25T15:14:56.635Z,12.52
2023-04-25T15:17:24.035Z,12.54
2023-04-25T15:19:51.413Z,12.39
2023-04-25T15:22:19.006Z,12.47
2023-04-25T15:24:46.388Z,12.44
2023-04-25T15:27:14.228Z,12.45
2023-04-25T15:29:41.631Z,12.49
2023-04-25T15:32:09.119Z,12.46
2023-04-25T15:34:36.733Z,12.52
2023-04-25T15:37:04.420Z,12.59
2023-04-25T15:39:32.078Z,12.49
2023-04-25T15:41:59.518Z,12.73
2023-04-25T15:44:27.022Z,12.72
2023-04-25T15:46:55.268Z,12.85
2023-04-25T15:49:23.060Z,12.87
2023-04-25T15:51:51.490Z,12.87
2023-04-25T15:54:19.105Z,12.77
2023-04-25T15:56:47.180Z,12.65
2023-04-25T15:59:14.692Z,12.64
2023-04-25T16:01:42.619Z,12.75
2023-04-25T16:04:10.514Z,12.79
2023-04-25T16:06:38.819Z,12.77
2023-04-25T16:09:07.047Z,12.87
2023-04-25T16:11:34.524Z,12.89
2023-04-25T16:14:02.104Z,12.78
2023-04-25T16:16:29.548Z,12.84
2023-04-25T16:18:56.969Z,12.77
2023-04-25T16:21:24.307Z,12.81
2023-04-25T16:23:51.925Z,12.84
2023-04-25T16:26:19.413Z,12.85
2023-04-25T16:28:46.801Z,12.93
2023-04-25T16:31:14.133Z,12.87
2023-04-25T16:33:41.535Z,12.83
2023-04-25T16:36:09.407Z,12.87
2023-04-25T16:38:39.650Z,12.96
2023-04-25T16:41:08.122Z,13.06
2023-04-25T16:43:36.328Z,13.06
2023-04-25T16:46:03.725Z,13.03
2023-04-25T16:48:31.291Z,13.11
2023-04-25T16:50:58.866Z,13.10
2023-04-25T16:53:26.814Z,13.09
2023-04-25T16:55:54.233Z,13.11
2023-04-25T16:58:21.917Z,13.16
2023-04-25T17:00:49.379Z,13.19
2023-04-25T17:03:16.946Z,13.19
2023-04-25T17:05:44.440Z,13.25
2023-04-25T17:08:11.984Z,13.16
2023-04-25T17:10:39.339Z,13.22
2023-04-25T17:13:06.851Z,13.07
2023-04-25T17:15:34.597Z,13.06
2023-04-25T17:18:02.113Z,13.13
2023-04-25T17:20:29.617Z,13.12
2023-04-25T17:22:57.522Z,13.13
2023-04-25T17:25:24.985Z,13.14
2023-04-25T17:27:52.377Z,13.16
2023-04-25T17:30:20.013Z,13.15
2023-04-25T17:32:47.430Z,13.12
2023-04-25T17:35:17.041Z,13.07
2023-04-25T17:37:45.394Z,13.06
2023-04-25T17:40:13.013Z,13.01
2023-04-25T17:42:41.382Z,12.96
2023-04-25T17:45:09.575Z,13.01
2023-04-25T17:47:37.070Z,12.96
2023-04-25T17:50:05.480Z,12.94
2023-04-25T17:52:33.505Z,12.86
2023-04-25T17:55:00.929Z,12.81
2023-04-25T17:57:28.323Z,12.75
2023-04-25T17:59:56.997Z,12.69
2023-04-25T18:02:24.510Z,12.75
2023-04-25T18:04:52.374Z,12.69
2023-04-25T18:07:19.728Z,12.61
2023-04-25T18:09:47.105Z,12.72
2023-04-25T18:12:15.310Z,12.58
2023-04-25T18:14:42.784Z,12.59
2023-04-25T18:17:12.391Z,12.32
2023-04-25T18:19:39.748Z,12.15
2023-04-25T18:22:07.078Z,11.98
2023-04-25T18:24:34.488Z,12.01
2023-04-25T18:27:05.819Z,11.88
2023-04-25T18:29:34.165Z,11.79
2023-04-25T18:32:02.486Z,11.74
2023-04-25T18:34:30.662Z,11.70
2023-04-25T18:36:58.148Z,11.60
2023-04-25T18:39:27.286Z,11.60
2023-04-25T18:42:13.741Z,11.52
2023-04-25T18:44:42.048Z,11.66
2023-04-25T18:47:10.906Z,11.65
2023-04-25T18:49:38.672Z,11.70
2023-04-25T18:52:10.795Z,11.68
2023-04-25T18:54:41.600Z,11.69
2023-04-25T18:57:14.376Z,11.71
2023-04-25T18:59:43.059Z,11.79
2023-04-25T19:02:10.731Z,11.74
2023-04-25T19:04:38.566Z,11.61
2023-04-25T19:07:06.022Z,11.45
2023-04-25T19:09:33.308Z,11.49
2023-04-25T19:12:01.844Z,11.60
2023-04-25T19:14:33.732Z,11.59
2023-04-25T19:17:01.169Z,11.52
2023-04-25T19:19:28.571Z,11.55
2023-04-25T19:21:56.249Z,11.48
2023-04-25T19:24:23.662Z,11.45
2023-04-25T19:26:50.966Z,11.38
2023-04-25T19:29:18.354Z,11.34
2023-04-25T19:31:45.762Z,11.36
2023-04-25T19:34:14.122Z,11.34
2023-04-25T19:36:42.439Z,11.34
2023-04-25T19:39:10.908Z,11.30
2023-04-25T19:41:38.754Z,11.31
2023-04-25T19:44:09.133Z,11.32
2023-04-25T19:46:37.253Z,11.39
2023-04-25T19:49:12.133Z,11.38
2023-04-25T19:51:39.561Z,11.38
2023-04-25T19:54:06.944Z,11.25
2023-04-25T19:56:34.542Z,11.25
2023-04-25T19:59:02.114Z,11.25
2023-04-25T20:01:30.400Z,11.24
2023-04-25T20:03:57.897Z,11.30
2023-04-25T20:06:25.494Z,11.28
2023-04-25T20:08:56.388Z,11.22
2023-04-25T20:11:23.899Z,11.25
2023-04-25T20:13:51.513Z,11.21
2023-04-25T20:16:21.858Z,11.20
2023-04-25T20:18:50.316Z,11.19
2023-04-25T20:21:18.713Z,11.12
2023-04-25T20:23:46.335Z,11.10
2023-04-25T20:26:14.130Z,11.11
2023-04-25T20:28:41.989Z,11.06
2023-04-25T20:31:10.950Z,11.00
2023-04-25T20:33:38.861Z,10.95
2023-04-25T20:36:06.337Z,11.02
2023-04-25T20:38:33.717Z,10.95
2023-04-25T20:41:01.194Z,10.93
2023-04-25T20:43:29.238Z,10.78
2023-04-25T20:46:00.502Z,10.73
2023-04-25T20:48:27.840Z,10.82
2023-04-25T20:50:55.217Z,10.76
2023-04-25T20:53:23.147Z,10.74
2023-04-25T20:55:50.500Z,10.71
2023-04-25T20:58:18.172Z,10.68
2023-04-25T21:00:47.494Z,10.73
2023-04-25T21:03:15.998Z,10.65
2023-04-25T21:05:43.520Z,10.62
2023-04-25T21:08:10.826Z,10.48
2023-04-25T21:10:38.190Z,10.43
2023-04-25T21:13:05.943Z,10.54
2023-04-25T21:15:33.834Z,10.59
2023-04-25T21:18:01.964Z,10.62
2023-04-25T21:20:29.514Z,10.62
2023-04-25T21:22:56.813Z,10.58
2023-04-25T21:25:30.003Z,10.55
2023-04-25T21:27:58.525Z,10.49
2023-04-25T21:30:26.465Z,10.53
2023-04-25T21:32:54.024Z,10.47
2023-04-25T21:35:22.488Z,10.42
2023-04-25T21:37:50.561Z,10.39
2023-04-25T21:40:18.479Z,10.38
2023-04-25T21:42:51.942Z,10.34
2023-04-25T21:45:20.169Z,10.36
2023-04-25T21:47:48.496Z,10.43
2023-04-25T21:50:17.198Z,10.32
2023-04-25T21:52:44.623Z,10.24
2023-04-25T21:55:12.134Z,10.20
2023-04-25T21:57:39.630Z,10.21
2023-04-25T22:00:22.049Z,10.07
2023-04-25T22:02:49.627Z,10.10
2023-04-25T22:05:20.272Z,10.07
2023-04-25T22:07:48.321Z,10.09
2023-04-25T22:10:15.946Z,10.14
2023-04-25T22:12:43.540Z,10.09
2023-04-25T22:15:12.851Z,10.19
2023-04-25T22:17:40.509Z,10.11
2023-04-25T22:20:13.335Z,10.26
2023-04-25T22:22:42.103Z,10.17
2023-04-25T22:25:11.980Z,10.08
2023-04-25T22:27:43.792Z,10.00
2023-04-25T22:30:15.018Z,9.99
2023-04-25T22:32:43.799Z,9.88
2023-04-25T22:35:12.122Z,10.01
2023-04-25T22:37:41.388Z,10.07
2023-04-25T22:40:09.261Z,10.06
2023-04-25T22:42:38.566Z,10.06
2023-04-25T22:45:10.340Z,10.13
2023-04-25T22:47:38.779Z,10.13
2023-04-25T22:50:08.512Z,10.03
2023-04-25T22:52:35.943Z,10.07
2023-04-25T22:55:03.586Z,10.08
2023-04-25T22:57:33.065Z,9.95
2023-04-25T23:00:01.668Z,9.93
2023-04-25T23:02:29.486Z,9.92
2023-04-25T23:04:56.904Z,9.93
2023-04-25T23:07:24.296Z,9.99
2023-04-25T23:09:52.086Z,9.86
2023-04-25T23:12:19.408Z,9.84
2023-04-25T23:14:51.943Z,9.81
2023-04-25T23:17:20.375Z,9.78
2023-04-25T23:19:48.416Z,9.72
2023-04-25T23:22:15.814Z,9.83
2023-04-25T23:24:43.632Z,9.71
2023-04-25T23:27:11.032Z,9.66
2023-04-25T23:29:40.533Z,9.67
2023-04-25T23:32:08.848Z,9.47
2023-04-25T23:34:36.712Z,9.47
2023-04-25T23:37:04.532Z,9.38
2023-04-25T23:39:31.830Z,9.39
2023-04-25T23:42:00.421Z,9.56
2023-04-25T23:44:27.797Z,9.49
2023-04-25T23:47:05.544Z,9.54
2023-04-25T23:49:33.734Z,9.56
2023-04-25T23:52:01.209Z,9.34
2023-04-25T23:54:28.577Z,9.25
2023-04-25T23:56:55.963Z,9.21
2023-04-25T23:59:23.384Z,9.39
